Time;durP1;ratioP1;P1;durP2;ratioP2;P2;SDS_P1;SDS_P2;PMS_P1;PMS_P2;Temp;Humidity;BMP_temperature;BMP_pressure;BME280_temperature;BME280_humidity;BME280_pressure;Samples;Min_cycle;Max_cycle;Signal;HPM_P1;HPM_P2
2021/03/28 00:01:01;;;;;;;4.30;1.10;;;;;;;;;;4975961;28;20052;-73
2021/03/28 00:03:33;;;;;;;3.65;1.10;;;;;;;;;;4987517;28;20061;-75
2021/03/28 00:06:15;;;;;;;2.60;1.17;;;;;;;;;;4975719;28;20050;-75
2021/03/28 00:08:43;;;;;;;6.57;1.10;;;;;;;;;;4993252;28;20332;-76
2021/03/28 00:11:14;;;;;;;3.40;1.10;;;;;;;;;;4993728;28;20574;-76
2021/03/28 00:13:45;;;;;;;3.17;1.20;;;;;;;;;;4993747;28;20501;-78
2021/03/28 00:16:11;;;;;;;2.38;0.90;;;;;;;;;;4993787;28;20053;-77
2021/03/28 00:18:57;;;;;;;5.93;1.20;;;;;;;;;;4976189;28;20637;-76
2021/03/28 00:21:35;;;;;;;2.55;0.90;;;;;;;;;;4976000;28;20169;-78
2021/03/28 00:24:15;;;;;;;3.20;1.00;;;;;;;;;;4993402;28;20058;-77
2021/03/28 00:27:04;;;;;;;2.63;0.98;;;;;;;;;;4975788;28;20022;-74
2021/03/28 00:29:31;;;;;;;3.67;0.98;;;;;;;;;;4993320;28;20033;-73
2021/03/28 00:32:03;;;;;;;7.22;1.15;;;;;;;;;;4993789;28;20045;-73
2021/03/28 00:34:31;;;;;;;3.93;1.40;;;;;;;;;;4976292;28;20030;-73
2021/03/28 00:37:00;;;;;;;3.88;1.15;;;;;;;;;;4993565;28;20261;-73
2021/03/28 00:39:35;;;;;;;2.47;1.00;;;;;;;;;;4993654;28;20026;-73
2021/03/28 00:42:21;;;;;;;2.80;0.90;;;;;;;;;;4976143;28;20038;-73
2021/03/28 00:44:52;;;;;;;2.85;1.23;;;;;;;;;;4993483;28;20022;-74
2021/03/28 00:47:20;;;;;;;5.10;1.10;;;;;;;;;;4993514;28;20475;-74
2021/03/28 00:49:47;;;;;;;2.35;0.88;;;;;;;;;;4975249;28;20029;-73
2021/03/28 00:52:13;;;;;;;3.28;1.20;;;;;;;;;;4993228;28;20034;-73
2021/03/28 00:54:39;;;;;;;2.05;0.90;;;;;;;;;;4993263;28;20476;-76
2021/03/28 00:57:14;;;;;;;3.78;1.10;;;;;;;;;;4993162;28;20022;-77
2021/03/28 00:59:53;;;;;;;4.18;1.08;;;;;;;;;;4993082;28;20037;-73
2021/03/28 01:02:32;;;;;;;3.20;0.95;;;;;;;;;;4975819;28;20101;-72
2021/03/28 01:05:02;;;;;;;3.67;1.15;;;;;;;;;;4993401;28;20030;-73
2021/03/28 01:07:31;;;;;;;4.60;1.10;;;;;;;;;;4993204;28;20629;-73
2021/03/28 01:10:00;;;;;;;2.60;1.00;;;;;;;;;;4992994;28;20077;-72
2021/03/28 01:12:45;;;;;;;2.40;1.02;;;;;;;;;;4975532;28;20069;-73
2021/03/28 01:15:30;;;;;;;2.22;0.82;;;;;;;;;;4993096;28;20022;-72
2021/03/28 01:18:06;;;;;;;2.45;1.05;;;;;;;;;;4975604;28;20161;-72
2021/03/28 01:20:32;;;;;;;3.88;1.10;;;;;;;;;;4992641;28;20085;-73
2021/03/28 01:23:10;;;;;;;2.47;0.93;;;;;;;;;;4992617;28;20113;-73
2021/03/28 01:25:36;;;;;;;3.03;0.98;;;;;;;;;;4992595;28;20062;-73
2021/03/28 01:28:13;;;;;;;2.47;1.08;;;;;;;;;;4975111;28;20052;-73
2021/03/28 01:30:43;;;;;;;1.95;0.88;;;;;;;;;;4992560;28;20098;-73
2021/03/28 01:33:12;;;;;;;5.40;1.30;;;;;;;;;;4992803;28;20031;-74
2021/03/28 01:35:57;;;;;;;2.75;1.05;;;;;;;;;;4992445;28;20057;-72
2021/03/28 01:38:26;;;;;;;2.45;1.00;;;;;;;;;;4975070;28;20030;-73
2021/03/28 01:40:56;;;;;;;2.78;1.20;;;;;;;;;;4975079;28;20070;-73
2021/03/28 01:43:25;;;;;;;1.50;0.70;;;;;;;;;;4992629;28;20033;-72
2021/03/28 01:45:57;;;;;;;2.40;0.93;;;;;;;;;;4992469;28;20023;-73
2021/03/28 01:48:41;;;;;;;1.95;0.80;;;;;;;;;;4974917;28;20030;-73
2021/03/28 01:51:23;;;;;;;2.03;0.93;;;;;;;;;;4992181;28;20018;-73
2021/03/28 01:54:07;;;;;;;4.50;1.10;;;;;;;;;;4975009;28;20502;-73
2021/03/28 01:56:45;;;;;;;3.28;1.13;;;;;;;;;;4992425;28;20023;-72
2021/03/28 01:59:17;;;;;;;3.15;1.02;;;;;;;;;;4974745;28;20034;-72
2021/03/28 02:01:50;;;;;;;2.05;1.02;;;;;;;;;;4991152;28;20035;-76
2021/03/28 02:04:35;;;;;;;2.03;0.90;;;;;;;;;;4992072;28;20018;-76
2021/03/28 02:07:06;;;;;;;2.58;0.95;;;;;;;;;;4991528;28;20029;-73
2021/03/28 02:09:46;;;;;;;2.70;1.13;;;;;;;;;;4974182;28;20026;-73
2021/03/28 02:12:12;;;;;;;2.17;0.85;;;;;;;;;;4991558;28;20265;-76
2021/03/28 02:14:38;;;;;;;4.20;1.20;;;;;;;;;;4973939;28;20602;-73
2021/03/28 02:17:21;;;;;;;2.97;0.70;;;;;;;;;;4991472;28;20395;-73
2021/03/28 02:19:57;;;;;;;1.88;0.80;;;;;;;;;;4973917;28;20031;-73
2021/03/28 02:22:31;;;;;;;3.65;1.33;;;;;;;;;;4973658;28;20503;-73
2021/03/28 02:25:04;;;;;;;3.20;1.05;;;;;;;;;;4973872;28;20030;-73
2021/03/28 02:27:30;;;;;;;2.17;1.08;;;;;;;;;;4986567;28;20018;-74
2021/03/28 02:29:56;;;;;;;4.45;1.00;;;;;;;;;;4991434;28;20045;-73
2021/03/28 02:32:31;;;;;;;2.65;1.10;;;;;;;;;;4974078;28;20507;-73
2021/03/28 02:35:06;;;;;;;2.42;1.00;;;;;;;;;;4991365;28;20069;-72
2021/03/28 02:37:40;;;;;;;2.35;1.00;;;;;;;;;;4991379;28;20623;-72
2021/03/28 02:40:11;;;;;;;3.67;1.13;;;;;;;;;;4991420;28;20034;-73
2021/03/28 02:42:57;;;;;;;4.22;1.20;;;;;;;;;;4973877;28;20781;-73
2021/03/28 02:45:28;;;;;;;2.63;1.10;;;;;;;;;;4991364;28;20109;-75
2021/03/28 02:48:02;;;;;;;2.58;0.95;;;;;;;;;;4991411;28;20069;-74
2021/03/28 02:50:47;;;;;;;3.55;1.17;;;;;;;;;;4973864;28;20026;-72
2021/03/28 02:53:35;;;;;;;4.38;1.30;;;;;;;;;;4973553;28;20028;-74
2021/03/28 02:56:03;;;;;;;3.53;1.48;;;;;;;;;;4991035;28;20526;-77
2021/03/28 02:58:38;;;;;;;3.70;1.40;;;;;;;;;;4974065;28;20078;-73
2021/03/28 03:01:23;;;;;;;4.43;1.50;;;;;;;;;;4991625;28;20491;-72
2021/03/28 03:03:49;;;;;;;2.33;1.10;;;;;;;;;;4991803;28;20154;-79
2021/03/28 03:06:15;;;;;;;3.25;1.30;;;;;;;;;;4974313;28;20027;-76
2021/03/28 03:08:45;;;;;;;3.38;1.17;;;;;;;;;;4991700;28;20022;-72
2021/03/28 03:11:17;;;;;;;5.15;1.52;;;;;;;;;;4991676;28;20577;-73
2021/03/28 03:14:02;;;;;;;3.53;1.33;;;;;;;;;;4993992;28;20027;-73
2021/03/28 03:16:47;;;;;;;2.97;1.33;;;;;;;;;;4977656;28;20178;-74
2021/03/28 03:19:19;;;;;;;3.00;1.05;;;;;;;;;;4995078;28;20501;-73
2021/03/28 03:21:57;;;;;;;3.10;1.40;;;;;;;;;;4977432;28;20034;-74
2021/03/28 03:24:53;;;;;;;5.95;1.40;;;;;;;;;;4977439;28;20129;-72
2021/03/28 03:27:19;;;;;;;5.18;1.58;;;;;;;;;;4958598;28;20039;-73
2021/03/28 03:30:03;;;;;;;4.18;1.20;;;;;;;;;;4994868;28;20433;-75
2021/03/28 03:32:42;;;;;;;2.38;1.15;;;;;;;;;;4994908;28;20026;-73
2021/03/28 03:35:15;;;;;;;3.38;1.38;;;;;;;;;;4995006;28;20388;-72
2021/03/28 03:37:59;;;;;;;3.92;1.30;;;;;;;;;;4994919;28;20058;-74
2021/03/28 03:40:39;;;;;;;3.28;1.05;;;;;;;;;;4994675;28;20026;-74
2021/03/28 03:43:20;;;;;;;2.90;1.20;;;;;;;;;;4977241;28;20034;-73
2021/03/28 03:45:59;;;;;;;3.78;1.42;;;;;;;;;;4994790;28;20051;-71
2021/03/28 03:48:28;;;;;;;5.90;1.38;;;;;;;;;;4977133;28;20105;-73
2021/03/28 03:50:54;;;;;;;3.10;1.38;;;;;;;;;;4976780;28;20054;-72
2021/03/28 03:53:27;;;;;;;4.43;1.60;;;;;;;;;;4994462;28;20033;-74
2021/03/28 03:56:10;;;;;;;3.13;1.33;;;;;;;;;;4994721;28;20434;-72
2021/03/28 03:58:53;;;;;;;3.15;1.35;;;;;;;;;;4976984;28;20615;-73
2021/03/28 04:01:22;;;;;;;4.57;1.60;;;;;;;;;;4994396;28;20117;-74
2021/03/28 04:03:48;;;;;;;3.80;1.55;;;;;;;;;;4976949;28;20471;-73
2021/03/28 04:06:33;;;;;;;3.60;1.13;;;;;;;;;;4994352;28;20026;-73
2021/03/28 04:09:07;;;;;;;4.03;1.33;;;;;;;;;;4976677;28;20050;-73
2021/03/28 04:11:44;;;;;;;2.97;1.35;;;;;;;;;;4994068;28;20480;-76
2021/03/28 04:14:13;;;;;;;4.75;1.38;;;;;;;;;;4994121;28;20045;-72
2021/03/28 04:16:39;;;;;;;3.13;1.20;;;;;;;;;;4994175;28;20027;-75
2021/03/28 04:19:08;;;;;;;3.13;1.17;;;;;;;;;;4994104;28;20050;-74
2021/03/28 04:21:43;;;;;;;3.25;1.23;;;;;;;;;;4994021;28;20037;-73
2021/03/28 04:24:09;;;;;;;3.15;1.17;;;;;;;;;;4992695;28;20046;-77
2021/03/28 04:26:35;;;;;;;2.67;1.10;;;;;;;;;;4976436;28;20038;-73
2021/03/28 04:29:07;;;;;;;3.42;1.23;;;;;;;;;;4988063;28;20022;-73
2021/03/28 04:31:52;;;;;;;3.95;1.45;;;;;;;;;;4993867;28;20034;-73
2021/03/28 04:34:18;;;;;;;3.35;1.10;;;;;;;;;;4993809;28;20065;-73
2021/03/28 04:37:02;;;;;;;2.63;1.08;;;;;;;;;;4993582;28;20054;-78
2021/03/28 04:39:47;;;;;;;2.70;1.30;;;;;;;;;;4976150;28;20077;-74
2021/03/28 04:42:33;;;;;;;4.70;1.20;;;;;;;;;;4976146;28;20045;-73
2021/03/28 04:45:02;;;;;;;3.05;1.30;;;;;;;;;;4975838;28;20487;-73
2021/03/28 04:47:28;;;;;;;4.30;1.30;;;;;;;;;;4993489;28;20113;-73
2021/03/28 04:49:58;;;;;;;3.00;1.20;;;;;;;;;;4993264;28;20553;-73
2021/03/28 04:52:42;;;;;;;2.92;1.10;;;;;;;;;;4975833;28;20030;-77
2021/03/28 04:55:08;;;;;;;3.10;1.23;;;;;;;;;;4993429;28;20088;-73
2021/03/28 04:57:41;;;;;;;3.72;1.17;;;;;;;;;;4975815;28;20431;-73
2021/03/28 05:00:16;;;;;;;3.03;1.25;;;;;;;;;;4975802;28;20022;-75
2021/03/28 05:02:42;;;;;;;3.05;1.20;;;;;;;;;;4975708;28;20041;-76
2021/03/28 05:05:27;;;;;;;3.58;1.10;;;;;;;;;;4975775;28;20026;-78
2021/03/28 05:07:59;;;;;;;2.50;1.10;;;;;;;;;;4975785;28;20097;-73
2021/03/28 05:10:37;;;;;;;3.55;1.20;;;;;;;;;;4975756;28;20057;-73
2021/03/28 05:13:03;;;;;;;3.22;1.20;;;;;;;;;;4975638;28;20029;-73
2021/03/28 05:15:41;;;;;;;4.05;1.33;;;;;;;;;;4975233;28;20030;-73
2021/03/28 05:18:26;;;;;;;1.88;1.00;;;;;;;;;;4992782;28;20076;-73
2021/03/28 05:21:01;;;;;;;3.00;1.05;;;;;;;;;;4975294;28;20031;-75
2021/03/28 05:23:50;;;;;;;4.15;1.30;;;;;;;;;;4992844;28;20045;-72
2021/03/28 05:26:40;;;;;;;3.35;1.42;;;;;;;;;;4973848;28;20057;-74
2021/03/28 05:29:26;;;;;;;3.50;1.25;;;;;;;;;;4992899;28;20030;-72
2021/03/28 05:32:06;;;;;;;3.53;1.23;;;;;;;;;;4992531;28;20026;-73
2021/03/28 05:34:51;;;;;;;4.43;1.10;;;;;;;;;;4992783;28;20476;-73
2021/03/28 05:37:17;;;;;;;3.08;1.27;;;;;;;;;;4992435;28;20097;-73
2021/03/28 05:40:01;;;;;;;2.97;1.10;;;;;;;;;;4992686;28;20058;-76
2021/03/28 05:42:38;;;;;;;2.78;1.00;;;;;;;;;;4992560;28;20462;-73
2021/03/28 05:45:23;;;;;;;5.05;1.38;;;;;;;;;;4992510;28;20022;-73
2021/03/28 05:47:58;;;;;;;3.53;1.10;;;;;;;;;;4974841;28;20081;-73
2021/03/28 05:50:39;;;;;;;4.63;1.42;;;;;;;;;;4992445;28;20026;-73
2021/03/28 05:53:24;;;;;;;3.55;1.40;;;;;;;;;;4992797;28;20019;-75
2021/03/28 05:56:01;;;;;;;3.22;1.10;;;;;;;;;;4974915;28;20383;-73
2021/03/28 05:58:27;;;;;;;3.47;1.23;;;;;;;;;;4992323;28;20038;-73
2021/03/28 06:00:56;;;;;;;5.20;1.27;;;;;;;;;;4974378;28;20030;-74
2021/03/28 06:03:22;;;;;;;3.72;1.10;;;;;;;;;;4973618;28;20034;-76
2021/03/28 06:06:07;;;;;;;2.17;1.00;;;;;;;;;;4973346;28;20033;-73
2021/03/28 06:08:39;;;;;;;2.33;1.00;;;;;;;;;;4974111;28;20026;-72
2021/03/28 06:11:24;;;;;;;5.00;1.17;;;;;;;;;;4991589;28;20038;-73
2021/03/28 06:13:55;;;;;;;3.08;1.25;;;;;;;;;;4991492;28;20360;-73
2021/03/28 06:16:37;;;;;;;5.97;1.40;;;;;;;;;;4991565;28;20027;-73
2021/03/28 06:19:22;;;;;;;2.42;1.10;;;;;;;;;;4973804;28;20069;-73
2021/03/28 06:22:06;;;;;;;3.10;1.17;;;;;;;;;;4991218;28;20165;-73
2021/03/28 06:24:48;;;;;;;2.88;0.98;;;;;;;;;;4973454;28;20042;-73
2021/03/28 06:27:37;;;;;;;2.90;1.10;;;;;;;;;;4991170;28;20030;-73
2021/03/28 06:30:09;;;;;;;3.70;1.30;;;;;;;;;;4986656;28;20034;-76
2021/03/28 06:32:54;;;;;;;2.45;0.98;;;;;;;;;;4992133;28;20030;-73
2021/03/28 06:35:23;;;;;;;3.95;1.20;;;;;;;;;;4992030;28;20065;-73
2021/03/28 06:38:05;;;;;;;3.00;1.25;;;;;;;;;;4974558;28;20022;-73
2021/03/28 06:40:50;;;;;;;2.40;1.02;;;;;;;;;;4991767;28;20080;-72
2021/03/28 06:43:22;;;;;;;3.35;1.27;;;;;;;;;;4974467;28;20033;-73
2021/03/28 06:45:51;;;;;;;3.42;1.10;;;;;;;;;;4992080;28;20034;-73
2021/03/28 06:48:17;;;;;;;3.03;1.17;;;;;;;;;;4976210;28;20049;-73
2021/03/28 06:51:02;;;;;;;2.88;1.38;;;;;;;;;;4995758;28;20026;-73
2021/03/28 06:53:30;;;;;;;4.53;1.35;;;;;;;;;;4995733;28;20149;-72
2021/03/28 06:56:23;;;;;;;2.38;1.08;;;;;;;;;;4978242;28;20092;-73
2021/03/28 06:58:49;;;;;;;5.30;1.00;;;;;;;;;;4979824;28;20045;-72
2021/03/28 07:01:15;;;;;;;3.20;0.90;;;;;;;;;;4995442;28;20093;-73
2021/03/28 07:03:59;;;;;;;5.47;1.23;;;;;;;;;;4995483;28;20025;-73
2021/03/28 07:06:36;;;;;;;5.45;1.42;;;;;;;;;;4977917;28;20031;-73
2021/03/28 07:09:13;;;;;;;2.25;0.82;;;;;;;;;;4995273;28;20026;-73
2021/03/28 07:11:39;;;;;;;2.63;1.05;;;;;;;;;;4995046;28;20014;-73
2021/03/28 07:14:05;;;;;;;3.83;1.00;;;;;;;;;;4977750;28;20022;-73
2021/03/28 07:16:37;;;;;;;4.35;0.95;;;;;;;;;;4995148;28;20493;-73
2021/03/28 07:19:06;;;;;;;7.00;1.40;;;;;;;;;;4977771;28;20061;-73
2021/03/28 07:21:37;;;;;;;3.70;0.90;;;;;;;;;;4995051;28;20032;-73
2021/03/28 07:24:18;;;;;;;2.53;0.80;;;;;;;;;;4994995;28;20458;-73
2021/03/28 07:26:47;;;;;;;2.90;0.90;;;;;;;;;;4995087;28;20030;-75
2021/03/28 07:29:32;;;;;;;1.63;0.68;;;;;;;;;;4994906;28;20053;-75
2021/03/28 07:32:24;;;;;;;2.35;0.90;;;;;;;;;;4994873;28;20489;-79
2021/03/28 07:35:19;;;;;;;2.37;0.87;;;;;;;;;;4979263;28;20081;-73
2021/03/28 07:38:04;;;;;;;2.70;0.80;;;;;;;;;;4994750;28;20026;-73
2021/03/28 07:40:49;;;;;;;3.55;1.00;;;;;;;;;;4977133;28;20023;-73
2021/03/28 07:43:38;;;;;;;2.40;0.88;;;;;;;;;;4994509;28;20041;-73
2021/03/28 07:46:13;;;;;;;3.33;1.00;;;;;;;;;;4989208;28;20475;-74
2021/03/28 07:48:51;;;;;;;3.15;0.90;;;;;;;;;;4977251;28;20058;-74
2021/03/28 07:51:44;;;;;;;2.80;0.90;;;;;;;;;;4994440;28;20053;-74
2021/03/28 07:54:29;;;;;;;4.32;1.00;;;;;;;;;;4976886;28;20121;-73
2021/03/28 07:56:55;;;;;;;1.40;0.57;;;;;;;;;;4994284;28;20026;-73
2021/03/28 07:59:28;;;;;;;3.05;0.90;;;;;;;;;;4994376;28;20526;-73
2021/03/28 08:02:04;;;;;;;2.80;0.98;;;;;;;;;;4994584;28;20038;-79
2021/03/28 08:04:38;;;;;;;2.58;0.75;;;;;;;;;;4994399;28;20480;-80
2021/03/28 08:07:23;;;;;;;3.80;0.77;;;;;;;;;;4994252;28;20073;-73
2021/03/28 08:10:08;;;;;;;2.42;0.90;;;;;;;;;;4976763;28;20026;-73
2021/03/28 08:12:46;;;;;;;2.20;0.70;;;;;;;;;;4994273;28;20113;-79
2021/03/28 08:15:31;;;;;;;2.85;0.90;;;;;;;;;;4976732;28;20037;-73
2021/03/28 08:18:12;;;;;;;3.67;1.05;;;;;;;;;;4994194;28;20054;-75
2021/03/28 08:20:49;;;;;;;1.90;0.80;;;;;;;;;;4976584;28;20058;-76
2021/03/28 08:23:15;;;;;;;2.38;0.70;;;;;;;;;;4994046;28;20046;-73
2021/03/28 08:25:50;;;;;;;1.77;0.82;;;;;;;;;;4993791;28;20081;-78
2021/03/28 08:28:28;;;;;;;3.03;0.90;;;;;;;;;;4976441;28;20023;-73
2021/03/28 08:31:13;;;;;;;2.97;0.73;;;;;;;;;;4975835;28;20058;-74
2021/03/28 08:33:42;;;;;;;2.35;0.70;;;;;;;;;;4974057;28;20026;-73
2021/03/28 08:36:11;;;;;;;3.05;0.98;;;;;;;;;;4992301;28;20030;-80
2021/03/28 08:38:57;;;;;;;2.30;0.90;;;;;;;;;;4993389;28;20112;-79
2021/03/28 08:41:29;;;;;;;6.53;1.00;;;;;;;;;;4993388;28;20539;-76
2021/03/28 08:44:14;;;;;;;1.80;0.65;;;;;;;;;;4993016;28;20041;-77
2021/03/28 08:46:43;;;;;;;4.70;0.70;;;;;;;;;;4975790;28;20092;-78
2021/03/28 08:49:15;;;;;;;2.55;0.90;;;;;;;;;;4975765;28;20037;-75
2021/03/28 08:52:00;;;;;;;2.70;1.13;;;;;;;;;;4993079;28;20040;-76
2021/03/28 08:54:40;;;;;;;7.35;1.70;;;;;;;;;;4993094;28;20065;-79
2021/03/28 08:57:06;;;;;;;4.28;1.90;;;;;;;;;;4992821;28;20061;-76
2021/03/28 08:59:35;;;;;;;6.70;2.22;;;;;;;;;;4975280;28;20034;-78
2021/03/28 09:02:07;;;;;;;5.47;2.35;;;;;;;;;;4975247;28;20092;-78
2021/03/28 09:04:49;;;;;;;4.43;2.10;;;;;;;;;;4975620;28;20026;-79
2021/03/28 09:07:15;;;;;;;6.40;2.13;;;;;;;;;;4993005;28;20032;-79
2021/03/28 09:09:43;;;;;;;5.45;2.20;;;;;;;;;;4992806;28;20081;-75
2021/03/28 09:12:20;;;;;;;7.15;2.30;;;;;;;;;;4974873;28;20034;-77
2021/03/28 09:15:10;;;;;;;4.40;1.40;;;;;;;;;;4975205;28;20092;-72
2021/03/28 09:17:58;;;;;;;4.15;1.70;;;;;;;;;;4954831;28;20036;-73
2021/03/28 09:20:44;;;;;;;4.78;1.58;;;;;;;;;;4992462;28;20026;-73
2021/03/28 09:23:29;;;;;;;4.57;1.65;;;;;;;;;;4992418;28;20046;-73
2021/03/28 09:25:55;;;;;;;2.92;1.50;;;;;;;;;;4992469;28;20149;-72
2021/03/28 09:28:39;;;;;;;3.95;1.45;;;;;;;;;;4992206;28;20049;-72
2021/03/28 09:31:24;;;;;;;3.88;1.42;;;;;;;;;;4992534;28;20085;-78
2021/03/28 09:33:54;;;;;;;4.45;1.30;;;;;;;;;;4992054;28;20097;-74
2021/03/28 09:36:29;;;;;;;4.05;1.40;;;;;;;;;;4992124;28;20019;-77
2021/03/28 09:39:09;;;;;;;7.70;1.50;;;;;;;;;;4992174;28;20026;-78
2021/03/28 09:41:35;;;;;;;4.65;1.73;;;;;;;;;;4974872;28;20037;-75
2021/03/28 09:44:01;;;;;;;6.18;1.38;;;;;;;;;;4992558;28;20073;-78
2021/03/28 09:46:27;;;;;;;3.53;1.30;;;;;;;;;;4992189;28;20022;-76
2021/03/28 09:48:53;;;;;;;7.55;1.27;;;;;;;;;;4992190;28;20431;-74
2021/03/28 09:51:31;;;;;;;11.15;2.10;;;;;;;;;;4992094;28;20072;-73
2021/03/28 09:54:06;;;;;;;7.28;1.48;;;;;;;;;;4974746;28;20033;-81
2021/03/28 09:56:34;;;;;;;7.30;1.77;;;;;;;;;;4974776;28;20522;-75
2021/03/28 09:59:20;;;;;;;8.18;1.20;;;;;;;;;;4992083;28;20018;-73
2021/03/28 10:01:55;;;;;;;8.80;1.40;;;;;;;;;;4991543;28;20057;-74
2021/03/28 10:04:36;;;;;;;4.00;1.00;;;;;;;;;;4991934;28;20108;-75
2021/03/28 10:07:03;;;;;;;4.05;1.35;;;;;;;;;;4991828;28;20554;-76
2021/03/28 10:09:38;;;;;;;3.50;1.15;;;;;;;;;;4991956;28;20022;-73
2021/03/28 10:12:18;;;;;;;3.88;1.10;;;;;;;;;;4991890;28;20018;-74
2021/03/28 10:14:53;;;;;;;6.65;1.10;;;;;;;;;;4991783;28;20510;-74
2021/03/28 10:17:39;;;;;;;5.82;1.42;;;;;;;;;;4974424;28;20113;-74
2021/03/28 10:20:24;;;;;;;4.63;1.50;;;;;;;;;;4974373;28;20022;-74
2021/03/28 10:22:50;;;;;;;3.05;1.10;;;;;;;;;;4975090;28;20463;-74
2021/03/28 10:25:25;;;;;;;5.50;1.00;;;;;;;;;;4995664;28;20046;-75
2021/03/28 10:27:55;;;;;;;3.85;1.17;;;;;;;;;;4978133;28;20058;-74
2021/03/28 10:30:41;;;;;;;3.42;1.30;;;;;;;;;;4976266;28;20476;-75
2021/03/28 10:33:16;;;;;;;2.95;1.20;;;;;;;;;;4969167;28;20041;-73
2021/03/28 10:35:57;;;;;;;3.90;1.20;;;;;;;;;;4976108;28;20023;-82
2021/03/28 10:38:27;;;;;;;4.53;1.10;;;;;;;;;;4976271;28;20023;-73
2021/03/28 10:40:53;;;;;;;9.30;1.10;;;;;;;;;;4978042;28;20258;-74
2021/03/28 10:43:19;;;;;;;4.70;1.05;;;;;;;;;;4978161;28;20041;-73
2021/03/28 10:45:54;;;;;;;4.68;0.80;;;;;;;;;;4995418;28;20025;-73
2021/03/28 10:48:20;;;;;;;3.47;0.93;;;;;;;;;;4995523;28;20089;-76
2021/03/28 10:50:46;;;;;;;7.30;0.93;;;;;;;;;;4995272;28;20537;-72
2021/03/28 10:53:31;;;;;;;5.13;1.00;;;;;;;;;;5001400;28;20040;-73
2021/03/28 10:55:57;;;;;;;2.78;0.75;;;;;;;;;;4995569;28;20030;-73
2021/03/28 10:58:41;;;;;;;2.28;0.80;;;;;;;;;;4995599;28;20143;-72
2021/03/28 11:01:13;;;;;;;2.67;0.90;;;;;;;;;;4994363;28;20100;-81
2021/03/28 11:03:48;;;;;;;2.75;0.90;;;;;;;;;;4995087;28;20062;-79
2021/03/28 11:06:38;;;;;;;2.97;1.08;;;;;;;;;;4977022;28;20033;-73
2021/03/28 11:09:17;;;;;;;4.28;1.00;;;;;;;;;;4993941;28;20055;-73
2021/03/28 11:12:01;;;;;;;1.75;0.70;;;;;;;;;;4993857;28;20026;-72
2021/03/28 11:14:37;;;;;;;3.58;0.77;;;;;;;;;;4993891;28;20038;-72
2021/03/28 11:17:06;;;;;;;2.92;1.05;;;;;;;;;;4976158;28;20057;-80
2021/03/28 11:19:47;;;;;;;4.40;1.00;;;;;;;;;;4974181;28;20081;-79
2021/03/28 11:22:13;;;;;;;2.67;0.70;;;;;;;;;;4994995;28;20069;-72
2021/03/28 11:24:52;;;;;;;4.60;0.90;;;;;;;;;;4994926;28;20099;-73
2021/03/28 11:27:33;;;;;;;4.15;0.70;;;;;;;;;;4977605;28;20557;-73
2021/03/28 11:30:02;;;;;;;1.58;0.70;;;;;;;;;;4977537;28;20057;-83
2021/03/28 11:32:34;;;;;;;2.60;0.80;;;;;;;;;;4995100;28;20025;-81
2021/03/28 11:35:10;;;;;;;2.72;0.55;;;;;;;;;;4994983;28;20033;-79
2021/03/28 11:37:50;;;;;;;3.40;0.70;;;;;;;;;;4977671;28;20114;-73
2021/03/28 11:40:16;;;;;;;3.15;1.00;;;;;;;;;;4994897;28;20034;-74
2021/03/28 11:42:43;;;;;;;2.85;0.77;;;;;;;;;;4994857;28;20038;-72
2021/03/28 11:45:27;;;;;;;1.98;0.70;;;;;;;;;;4994981;28;20471;-78
2021/03/28 11:47:54;;;;;;;2.47;0.88;;;;;;;;;;4977521;28;20026;-72
2021/03/28 11:50:32;;;;;;;2.35;0.70;;;;;;;;;;4994593;28;20395;-72
2021/03/28 11:53:04;;;;;;;1.90;0.60;;;;;;;;;;4994674;28;20057;-72
2021/03/28 11:55:39;;;;;;;2.58;0.80;;;;;;;;;;4977338;28;20022;-72
2021/03/28 11:58:25;;;;;;;1.40;0.70;;;;;;;;;;4994489;28;20056;-72
2021/03/28 12:00:54;;;;;;;2.20;0.60;;;;;;;;;;4976899;28;20019;-72
2021/03/28 12:03:20;;;;;;;2.13;0.70;;;;;;;;;;4994332;28;20062;-72
2021/03/28 12:06:08;;;;;;;3.10;0.85;;;;;;;;;;4976825;28;20418;-71
2021/03/28 12:08:34;;;;;;;3.40;0.90;;;;;;;;;;4994156;28;20026;-72
2021/03/28 12:11:20;;;;;;;2.65;0.80;;;;;;;;;;4976833;28;20112;-73
2021/03/28 12:13:49;;;;;;;4.88;1.60;;;;;;;;;;4976617;28;20022;-76
2021/03/28 12:16:15;;;;;;;2.28;0.70;;;;;;;;;;4994303;28;20450;-76
2021/03/28 12:18:46;;;;;;;2.42;0.80;;;;;;;;;;4976734;28;20085;-72
2021/03/28 12:21:12;;;;;;;3.35;0.77;;;;;;;;;;4976388;28;20050;-73
2021/03/28 12:23:44;;;;;;;2.55;0.70;;;;;;;;;;4993749;28;20117;-76
2021/03/28 12:26:11;;;;;;;5.13;1.15;;;;;;;;;;4976701;28;20030;-84
2021/03/28 12:28:47;;;;;;;2.65;0.80;;;;;;;;;;4976363;28;20030;-76
2021/03/28 12:31:34;;;;;;;2.15;0.73;;;;;;;;;;4976742;28;20030;-74
2021/03/28 12:34:09;;;;;;;1.45;0.57;;;;;;;;;;4969529;28;20126;-80
2021/03/28 12:36:55;;;;;;;2.45;0.73;;;;;;;;;;4993764;28;20034;-72
2021/03/28 12:39:24;;;;;;;5.28;0.98;;;;;;;;;;4993448;28;20106;-72
2021/03/28 12:42:02;;;;;;;3.88;0.80;;;;;;;;;;4993492;28;20037;-72
2021/03/28 12:44:48;;;;;;;3.15;0.90;;;;;;;;;;4993622;28;20069;-72
2021/03/28 12:47:23;;;;;;;3.00;0.80;;;;;;;;;;4975192;28;20045;-71
2021/03/28 12:49:49;;;;;;;2.83;0.75;;;;;;;;;;4975962;28;20113;-75
2021/03/28 12:52:36;;;;;;;2.15;0.60;;;;;;;;;;4993535;28;20053;-72
2021/03/28 12:55:20;;;;;;;3.28;0.65;;;;;;;;;;4993253;28;20026;-71
2021/03/28 12:57:48;;;;;;;2.78;0.82;;;;;;;;;;4975651;28;20571;-71
2021/03/28 13:00:17;;;;;;;2.45;0.90;;;;;;;;;;4993241;28;20380;-72
2021/03/28 13:02:45;;;;;;;1.27;0.60;;;;;;;;;;4993103;28;20509;-72
2021/03/28 13:05:23;;;;;;;3.20;1.20;;;;;;;;;;4993495;28;20365;-80
2021/03/28 13:07:51;;;;;;;2.00;0.65;;;;;;;;;;4993184;28;20049;-73
2021/03/28 13:10:31;;;;;;;2.88;0.70;;;;;;;;;;4975731;28;20031;-72
2021/03/28 13:13:02;;;;;;;2.17;0.80;;;;;;;;;;4975532;28;20030;-73
2021/03/28 13:15:28;;;;;;;3.15;0.90;;;;;;;;;;4975455;28;20034;-72
2021/03/28 13:18:14;;;;;;;2.45;0.70;;;;;;;;;;4993052;28;20570;-72
2021/03/28 13:20:42;;;;;;;2.25;0.70;;;;;;;;;;4973528;28;20038;-71
2021/03/28 13:23:26;;;;;;;3.72;0.75;;;;;;;;;;4992725;28;20044;-72
2021/03/28 13:26:15;;;;;;;1.88;0.80;;;;;;;;;;4992781;28;20069;-72
2021/03/28 13:28:42;;;;;;;1.80;0.70;;;;;;;;;;4970216;28;20034;-77
2021/03/28 13:31:20;;;;;;;2.90;0.70;;;;;;;;;;4992869;28;20033;-73
2021/03/28 13:33:49;;;;;;;3.83;0.88;;;;;;;;;;4992798;28;20105;-72
2021/03/28 13:36:21;;;;;;;2.58;0.70;;;;;;;;;;4992663;28;20030;-73
2021/03/28 13:38:59;;;;;;;1.75;0.63;;;;;;;;;;4992551;28;20502;-82
2021/03/28 13:41:28;;;;;;;1.92;0.73;;;;;;;;;;4992367;28;20026;-72
2021/03/28 13:44:02;;;;;;;2.33;0.70;;;;;;;;;;4992402;28;20390;-72
2021/03/28 13:46:30;;;;;;;2.30;0.80;;;;;;;;;;4975437;28;20043;-78
2021/03/28 13:49:04;;;;;;;2.05;0.70;;;;;;;;;;4974895;28;20506;-81
2021/03/28 13:51:31;;;;;;;2.30;1.00;;;;;;;;;;4992617;28;20059;-71
2021/03/28 13:54:05;;;;;;;3.42;0.80;;;;;;;;;;4974895;28;20109;-72
2021/03/28 13:56:39;;;;;;;2.85;0.75;;;;;;;;;;4992311;28;20056;-72
2021/03/28 13:59:34;;;;;;;2.78;1.05;;;;;;;;;;4974812;28;20027;-72
2021/03/28 14:02:13;;;;;;;1.70;0.73;;;;;;;;;;4991002;28;20034;-77
2021/03/28 14:04:44;;;;;;;1.77;0.80;;;;;;;;;;4992335;28;20526;-72
2021/03/28 14:07:16;;;;;;;2.78;0.75;;;;;;;;;;4974789;28;20022;-79
2021/03/28 14:09:48;;;;;;;1.98;0.77;;;;;;;;;;4974734;28;20030;-75
2021/03/28 14:12:36;;;;;;;1.65;0.60;;;;;;;;;;4992295;28;20109;-71
2021/03/28 14:15:21;;;;;;;2.55;0.80;;;;;;;;;;4974778;28;20511;-72
2021/03/28 14:18:06;;;;;;;2.22;0.80;;;;;;;;;;4992200;28;20033;-81
2021/03/28 14:20:37;;;;;;;3.25;1.00;;;;;;;;;;4992205;28;20076;-81
2021/03/28 14:23:06;;;;;;;1.30;0.73;;;;;;;;;;4991968;28;20038;-72
2021/03/28 14:25:35;;;;;;;3.33;0.93;;;;;;;;;;4991782;28;20531;-75
2021/03/28 14:28:20;;;;;;;2.58;0.90;;;;;;;;;;4991921;28;20038;-78
2021/03/28 14:30:46;;;;;;;2.42;0.77;;;;;;;;;;4991980;28;20022;-79
2021/03/28 14:33:23;;;;;;;2.05;0.80;;;;;;;;;;4974432;28;20023;-71
2021/03/28 14:36:01;;;;;;;2.35;0.90;;;;;;;;;;4974836;28;20385;-71
2021/03/28 14:38:27;;;;;;;2.97;0.93;;;;;;;;;;4974480;28;20037;-72
2021/03/28 14:41:12;;;;;;;3.58;0.90;;;;;;;;;;4991926;28;20383;-71
2021/03/28 14:43:38;;;;;;;2.20;0.93;;;;;;;;;;4974298;28;20054;-72
2021/03/28 14:46:20;;;;;;;1.88;0.75;;;;;;;;;;4991764;28;20023;-71
2021/03/28 14:48:51;;;;;;;2.17;0.80;;;;;;;;;;4991789;28;20026;-72
2021/03/28 14:51:43;;;;;;;3.08;1.05;;;;;;;;;;4991861;28;20023;-75
2021/03/28 14:54:21;;;;;;;3.67;1.40;;;;;;;;;;4959258;28;20030;-72
2021/03/28 14:56:51;;;;;;;2.72;0.77;;;;;;;;;;4991858;28;20026;-72
2021/03/28 14:59:21;;;;;;;2.78;1.02;;;;;;;;;;4991571;28;20101;-71
2021/03/28 15:01:53;;;;;;;3.15;0.85;;;;;;;;;;4991412;28;20049;-71
2021/03/28 15:04:54;;;;;;;2.85;1.10;;;;;;;;;;4991643;28;20116;-72
2021/03/28 15:07:39;;;;;;;4.88;1.15;;;;;;;;;;4934223;28;20040;-71
2021/03/28 15:10:10;;;;;;;2.20;0.80;;;;;;;;;;4991522;28;20037;-71
2021/03/28 15:12:40;;;;;;;2.80;1.08;;;;;;;;;;4995311;28;20045;-71
2021/03/28 15:15:09;;;;;;;2.15;0.90;;;;;;;;;;4995465;28;20062;-71
2021/03/28 15:17:41;;;;;;;4.32;1.05;;;;;;;;;;4995275;28;20026;-71
2021/03/28 15:20:16;;;;;;;3.33;1.15;;;;;;;;;;4977506;28;20096;-72
2021/03/28 15:22:47;;;;;;;5.15;1.20;;;;;;;;;;4989311;28;20037;-72
2021/03/28 15:25:15;;;;;;;2.95;1.00;;;;;;;;;;4995073;28;20414;-71
2021/03/28 15:27:51;;;;;;;3.60;1.10;;;;;;;;;;4977696;28;20030;-72
2021/03/28 15:30:31;;;;;;;4.82;1.30;;;;;;;;;;4977579;28;20026;-73
2021/03/28 15:33:16;;;;;;;4.43;1.40;;;;;;;;;;4995008;28;20492;-71